Time;durP1;ratioP1;P1;durP2;ratioP2;P2;SDS_P1;SDS_P2;PMS_P1;PMS_P2;Temp;Humidity;BMP_temperature;BMP_pressure;BME280_temperature;BME280_humidity;BME280_pressure;Samples;Min_cycle;Max_cycle;Signal;HPM_P1;HPM_P2
2024/04/17 00:01:01;;;;;;;2.97;0.80;;;;;;;-146.27;76.17;44756.38;5467933;26;20013;-69
2024/04/17 00:03:26;;;;;;;4.22;1.38;;;;;;;-146.27;75.34;44780.25;5468127;26;20339;-70
2024/04/17 00:05:51;;;;;;;4.78;0.75;;;;;;;-146.27;75.31;44830.00;5480866;26;19994;-69
2024/04/17 00:08:16;;;;;;;4.28;0.90;;;;;;;-146.27;74.78;44909.63;5447216;26;20072;-68
2024/04/17 00:10:42;;;;;;;12.30;0.90;;;;;;;-146.27;74.73;44915.59;5450896;26;20025;-70
2024/04/17 00:13:07;;;;;;;6.45;0.90;;;;;;;-146.27;74.83;44891.69;5466299;26;19995;-68
2024/04/17 00:15:33;;;;;;;6.45;0.98;;;;;;;-146.27;75.04;44927.53;5448093;26;20003;-67
2024/04/17 00:17:58;;;;;;;3.88;0.82;;;;;;;-146.27;75.81;44879.75;5475461;26;20001;-69
2024/04/17 00:20:23;;;;;;;2.55;0.95;;;;;;;-146.27;76.15;44851.91;5483248;26;20075;-70
2024/04/17 00:22:49;;;;;;;2.72;0.90;;;;;;;-146.27;76.16;44847.91;5464920;26;20443;-70
2024/04/17 00:25:14;;;;;;;6.47;1.00;;;;;;;-146.27;76.85;44794.19;5460600;26;20005;-69
2024/04/17 00:27:40;;;;;;;5.43;1.20;;;;;;;-146.27;77.17;44788.22;5465037;26;19991;-68
2024/04/17 00:30:06;;;;;;;9.43;1.20;;;;;;;-146.27;77.72;44752.41;5469120;26;20009;-68
2024/04/17 00:32:31;;;;;;;3.47;1.02;;;;;;;-146.27;77.83;44744.44;5471983;26;21067;-70
2024/04/17 00:34:57;;;;;;;6.40;1.35;;;;;;;-146.27;78.03;44700.66;5447913;26;20038;-71
2024/04/17 00:37:22;;;;;;;6.20;1.30;;;;;;;-146.27;78.03;44724.56;5460685;26;19999;-71
2024/04/17 00:39:47;;;;;;;1.65;0.65;;;;;;;-146.27;77.81;44712.59;5473102;26;20062;-70
2024/04/17 00:42:13;;;;;;;2.38;0.75;;;;;;;-146.27;77.85;44714.59;5458322;25;19991;-70
2024/04/17 00:44:38;;;;;;;5.63;0.80;;;;;;;-146.27;77.97;44724.56;5459627;26;20005;-70
2024/04/17 00:47:05;;;;;;;1.83;0.73;;;;;;;-146.27;78.25;44722.56;5455743;26;20005;-70
2024/04/17 00:49:31;;;;;;;6.10;1.02;;;;;;;-146.27;78.09;44732.50;5485783;26;20470;-71
2024/04/17 00:51:57;;;;;;;5.85;0.80;;;;;;;-146.27;78.49;44712.59;5471822;26;19995;-70
2024/04/17 00:54:22;;;;;;;3.83;0.95;;;;;;;-146.27;78.13;44718.56;5485568;26;20192;-71
2024/04/17 00:56:48;;;;;;;7.03;0.80;;;;;;;-146.27;78.47;44736.50;5479491;26;19998;-71
2024/04/17 00:59:14;;;;;;;8.13;0.82;;;;;;;-146.27;78.71;44684.75;5450355;26;20068;-71
2024/04/17 01:01:39;;;;;;;5.07;0.65;;;;;;;-146.27;78.52;44708.63;5474645;26;19995;-70
2024/04/17 01:04:04;;;;;;;3.55;1.38;;;;;;;-146.27;78.29;44668.84;5460981;26;20006;-69
2024/04/17 01:06:30;;;;;;;1.92;0.50;;;;;;;-146.27;78.97;44710.63;5454528;26;19998;-70
2024/04/17 01:08:56;;;;;;;5.38;0.88;;;;;;;-146.27;79.07;44648.94;5465787;26;20392;-70
2024/04/17 01:11:21;;;;;;;5.40;0.90;;;;;;;-146.27;79.08;44680.78;5469104;26;20453;-71
2024/04/17 01:13:46;;;;;;;1.63;0.60;;;;;;;-146.27;79.02;44684.75;5487667;26;19990;-70
2024/04/17 01:16:11;;;;;;;1.73;0.75;;;;;;;-146.27;79.43;44652.91;5473950;26;20017;-71
2024/04/17 01:18:39;;;;;;;3.47;0.65;;;;;;;-146.27;79.57;44593.22;5462774;26;19994;-72
2024/04/17 01:21:04;;;;;;;3.67;0.60;;;;;;;-146.27;80.76;44593.22;5470772;26;19994;-70
2024/04/17 01:23:29;;;;;;;2.10;0.63;;;;;;;-146.27;80.57;44545.47;5459218;26;20096;-71
2024/04/17 01:25:55;;;;;;;6.05;1.25;;;;;;;-146.27;81.17;44499.69;5450905;26;20435;-71
2024/04/17 01:28:20;;;;;;;5.53;0.50;;;;;;;-146.27;81.13;44489.75;5467444;26;19999;-71
2024/04/17 01:30:45;;;;;;;2.10;0.50;;;;;;;-146.27;81.30;44501.69;5461258;26;20059;-72
2024/04/17 01:33:11;;;;;;;4.45;0.50;;;;;;;-146.27;80.10;44557.41;5485173;26;20002;-72
2024/04/17 01:35:36;;;;;;;3.60;0.60;;;;;;;-146.27;79.25;44652.91;5456727;26;20036;-71
2024/04/17 01:38:02;;;;;;;5.28;1.00;;;;;;;-146.27;79.31;44682.75;5464520;26;20485;-70
2024/04/17 01:40:27;;;;;;;6.47;0.70;;;;;;;-146.27;81.20;44650.94;5462108;26;20489;-67
2024/04/17 01:42:52;;;;;;;5.80;1.00;;;;;;;-146.27;82.14;44533.53;5466426;26;20073;-68
2024/04/17 01:45:18;;;;;;;1.05;0.55;;;;;;;-146.27;82.49;44487.75;5456880;26;20011;-68
2024/04/17 01:47:43;;;;;;;10.68;0.93;;;;;;;-146.27;82.28;44426.06;5450456;26;20005;-68
2024/04/17 01:50:09;;;;;;;3.03;0.60;;;;;;;-146.27;82.47;44430.06;5461730;26;20153;-68
2024/04/17 01:52:34;;;;;;;9.82;0.85;;;;;;;-146.27;82.35;44386.28;5460768;26;20046;-68
2024/04/17 01:54:59;;;;;;;2.17;0.57;;;;;;;-146.27;82.51;44390.25;5476221;26;20418;-69
2024/04/17 01:57:25;;;;;;;5.82;0.73;;;;;;;-146.27;82.57;44384.28;5450479;26;20358;-69
2024/04/17 01:59:50;;;;;;;5.38;0.82;;;;;;;-146.27;83.04;44324.59;5470909;26;20454;-68
2024/04/17 02:02:16;;;;;;;5.10;1.00;;;;;;;-146.27;83.03;44306.69;5457701;26;19994;-69
2024/04/17 02:04:41;;;;;;;3.92;1.25;;;;;;;-146.27;83.39;44229.09;5450858;26;19999;-68
2024/04/17 02:07:06;;;;;;;4.20;0.75;;;;;;;-146.27;83.72;44211.19;5457467;26;20371;-68
2024/04/17 02:09:31;;;;;;;4.28;0.73;;;;;;;-146.27;83.84;44155.47;5448731;26;21276;-68
2024/04/17 02:11:57;;;;;;;5.00;0.95;;;;;;;-146.27;84.22;44139.56;5459728;26;20095;-68
2024/04/17 02:14:22;;;;;;;3.58;1.02;;;;;;;-146.27;84.94;44038.09;5471686;26;20079;-68
2024/04/17 02:16:49;;;;;;;9.02;0.93;;;;;;;-146.27;84.45;44026.16;5463457;26;20020;-69
2024/04/17 02:19:14;;;;;;;11.18;1.08;;;;;;;-146.27;84.34;44032.13;5449831;26;20547;-69
2024/04/17 02:21:40;;;;;;;8.57;1.15;;;;;;;-146.27;84.15;44006.25;5458697;26;20060;-68
2024/04/17 02:24:05;;;;;;;3.47;0.55;;;;;;;-146.27;84.54;43990.34;5453778;26;20338;-68
2024/04/17 02:26:30;;;;;;;7.65;1.63;;;;;;;-146.27;84.92;43940.63;5459477;26;20307;-67
2024/04/17 02:28:56;;;;;;;3.65;1.52;;;;;;;-146.27;85.32;43865.00;5448754;26;20478;-68
2024/04/17 02:31:21;;;;;;;14.32;2.72;;;;;;;-146.27;84.58;43900.81;5463495;26;20017;-70
2024/04/17 02:33:46;;;;;;;5.65;1.40;;;;;;;-146.27;83.99;43932.66;5462788;26;20475;-67
2024/04/17 02:36:12;;;;;;;4.53;1.55;;;;;;;-146.27;84.34;43900.81;5456268;26;20009;-68
2024/04/17 02:38:37;;;;;;;4.47;0.93;;;;;;;-146.27;84.29;43936.63;5467067;26;20044;-67
2024/04/17 02:41:03;;;;;;;6.88;1.30;;;;;;;-146.27;84.59;43932.66;5453048;26;20006;-68
2024/04/17 02:43:28;;;;;;;10.90;1.45;;;;;;;-146.27;84.78;43920.72;5455321;26;20009;-69
2024/04/17 02:45:53;;;;;;;11.25;1.48;;;;;;;-146.27;84.94;43904.81;5464378;26;20067;-69
2024/04/17 02:48:19;;;;;;;9.75;1.40;;;;;;;-146.27;84.79;43916.75;5478611;26;20068;-67
2024/04/17 02:50:44;;;;;;;12.25;1.60;;;;;;;-146.27;84.49;43936.63;5471849;26;19994;-73
2024/04/17 02:53:10;;;;;;;9.45;1.85;;;;;;;-146.27;84.30;43932.66;5470690;26;19994;-71
2024/04/17 02:55:36;;;;;;;14.20;1.40;;;;;;;-146.27;84.58;43946.59;5474790;26;19990;-71
2024/04/17 02:58:01;;;;;;;10.65;1.13;;;;;;;-146.27;84.90;43976.41;5483919;26;20438;-71
2024/04/17 03:00:27;;;;;;;12.93;2.03;;;;;;;-146.27;84.87;43936.63;5462242;26;20814;-72
2024/04/17 03:02:52;;;;;;;7.88;1.15;;;;;;;-146.27;84.69;43988.34;5455429;26;19999;-71
2024/04/17 03:05:17;;;;;;;18.48;1.73;;;;;;;-146.27;84.65;43924.69;5451843;26;20417;-73
2024/04/17 03:07:44;;;;;;;10.85;1.30;;;;;;;-146.27;84.34;43922.72;5455870;26;19999;-71
2024/04/17 03:10:10;;;;;;;13.88;1.60;;;;;;;-146.27;84.17;43948.56;5469697;26;20037;-71
2024/04/17 03:12:36;;;;;;;12.15;2.05;;;;;;;-146.27;83.84;44000.28;5454237;26;19994;-72
2024/04/17 03:15:01;;;;;;;15.77;1.90;;;;;;;-146.27;83.47;44054.00;5462089;26;20002;-71
2024/04/17 03:17:26;;;;;;;13.23;1.52;;;;;;;-146.27;83.87;44018.19;5465602;26;19991;-71
2024/04/17 03:19:52;;;;;;;14.10;1.30;;;;;;;-146.27;83.43;44075.91;5448910;26;20017;-71
2024/04/17 03:22:17;;;;;;;14.45;1.85;;;;;;;-146.27;83.64;44083.84;5462253;26;20062;-72
2024/04/17 03:24:42;;;;;;;8.85;2.03;;;;;;;-146.27;83.36;44067.94;5471917;26;20061;-71
2024/04/17 03:27:08;;;;;;;9.90;1.52;;;;;;;-146.27;83.06;44127.63;5475403;26;19998;-71
2024/04/17 03:29:33;;;;;;;6.50;1.10;;;;;;;-146.27;83.17;44127.63;5459899;26;20439;-70
2024/04/17 03:32:02;;;;;;;12.85;2.17;;;;;;;-146.27;83.61;44161.44;5447982;26;20498;-70
2024/04/17 03:34:27;;;;;;;11.88;1.52;;;;;;;-146.27;83.34;44155.47;5448605;26;20455;-71
2024/04/17 03:36:53;;;;;;;9.88;1.25;;;;;;;-146.27;83.06;44163.44;5476809;26;20040;-71
2024/04/17 03:39:18;;;;;;;11.20;1.45;;;;;;;-146.27;82.65;44151.50;5465442;26;20452;-71
2024/04/17 03:41:45;;;;;;;14.90;2.10;;;;;;;-146.27;82.55;44211.19;5448723;26;20007;-72
2024/04/17 03:44:11;;;;;;;8.27;1.20;;;;;;;-146.27;82.14;44227.09;5446833;26;20003;-71
2024/04/17 03:46:36;;;;;;;8.60;1.15;;;;;;;-146.27;81.98;44231.09;5462924;26;20002;-71
2024/04/17 03:49:01;;;;;;;11.77;1.52;;;;;;;-146.27;82.04;44270.88;5455799;26;19999;-71
2024/04/17 03:51:27;;;;;;;10.70;1.40;;;;;;;-146.27;81.98;44260.94;5449574;26;19995;-71
2024/04/17 03:53:53;;;;;;;10.10;1.25;;;;;;;-146.27;81.52;44294.75;5450509;26;20071;-72
2024/04/17 03:56:18;;;;;;;6.60;1.42;;;;;;;-146.27;80.62;44350.47;5493214;26;20355;-70
2024/04/17 03:58:44;;;;;;;11.30;1.00;;;;;;;-146.27;79.89;44410.16;5463805;25;19998;-71
2024/04/17 04:01:09;;;;;;;9.95;1.10;;;;;;;-146.27;79.33;44422.09;5465109;26;20036;-71
2024/04/17 04:03:34;;;;;;;15.25;1.50;;;;;;;-146.27;78.72;44457.91;5459705;26;20446;-72
2024/04/17 04:06:00;;;;;;;12.00;1.67;;;;;;;-146.27;79.17;44467.88;5478415;26;19998;-71
2024/04/17 04:08:25;;;;;;;5.13;1.40;;;;;;;-146.27;78.98;44473.84;5466475;26;20004;-71
2024/04/17 04:10:50;;;;;;;11.70;1.60;;;;;;;-146.27;78.41;44505.66;5472198;26;19994;-71
2024/04/17 04:13:16;;;;;;;12.77;1.80;;;;;;;-146.27;78.08;44529.53;5480308;26;20009;-71
2024/04/17 04:15:41;;;;;;;12.73;1.75;;;;;;;-146.27;78.38;44579.28;5456731;26;20325;-70
2024/04/17 04:18:06;;;;;;;12.30;1.60;;;;;;;-146.27;78.33;44569.34;5451973;26;20071;-70
2024/04/17 04:20:32;;;;;;;11.43;1.58;;;;;;;-146.27;78.30;44535.50;5452396;26;20002;-72
2024/04/17 04:22:57;;;;;;;9.50;1.40;;;;;;;-146.27;78.32;44547.44;5452518;26;19991;-72
2024/04/17 04:25:23;;;;;;;8.43;1.42;;;;;;;-146.27;78.16;44569.34;5466954;26;20006;-71
2024/04/17 04:27:48;;;;;;;12.50;1.65;;;;;;;-146.27;78.14;44585.25;5464000;26;20014;-71
2024/04/17 04:30:13;;;;;;;11.52;1.63;;;;;;;-146.27;78.53;44549.44;5453304;26;20818;-72
2024/04/17 04:32:39;;;;;;;7.55;1.38;;;;;;;-146.27;78.80;44521.59;5459741;26;19998;-71
2024/04/17 04:35:05;;;;;;;9.10;1.52;;;;;;;-146.27;78.48;44529.53;5455084;26;20087;-70
2024/04/17 04:37:30;;;;;;;8.23;2.72;;;;;;;-146.27;78.68;44575.31;5456592;26;19999;-71
2024/04/17 04:39:56;;;;;;;10.38;1.63;;;;;;;-146.27;79.01;44587.25;5463000;26;20071;-71
2024/04/17 04:42:21;;;;;;;9.60;1.40;;;;;;;-146.27;78.25;44609.13;5457327;26;19995;-70
2024/04/17 04:44:46;;;;;;;7.22;1.90;;;;;;;-146.27;78.27;44648.94;5450893;26;19994;-71
2024/04/17 04:47:14;;;;;;;10.27;1.40;;;;;;;-146.27;77.45;44640.97;5483371;26;20003;-71
2024/04/17 04:49:40;;;;;;;7.18;1.35;;;;;;;-146.27;77.79;44688.72;5469078;26;19994;-70
2024/04/17 04:52:05;;;;;;;11.80;1.58;;;;;;;-146.27;78.12;44678.78;5450540;26;20023;-69
2024/04/17 04:54:30;;;;;;;11.20;1.65;;;;;;;-146.27;78.14;44744.44;5457660;26;20003;-70
2024/04/17 04:56:56;;;;;;;8.07;1.70;;;;;;;-146.27;77.88;44780.25;5486148;26;20022;-71
2024/04/17 04:59:21;;;;;;;9.63;1.83;;;;;;;-146.27;78.37;44865.84;5487742;26;20050;-71
2024/04/17 05:01:47;;;;;;;14.27;1.48;;;;;;;-146.27;78.04;44917.56;5475704;26;20022;-71
2024/04/17 05:04:12;;;;;;;8.18;1.27;;;;;;;-146.27;77.90;45007.13;5473123;26;19994;-70
2024/04/17 05:06:38;;;;;;;11.07;1.85;;;;;;;-146.27;78.13;45102.66;5478923;26;20311;-72
2024/04/17 05:09:03;;;;;;;6.38;1.40;;;;;;;-146.27;77.40;45196.19;5479641;26;20002;-72
2024/04/17 05:11:28;;;;;;;4.82;1.35;;;;;;;-146.27;77.42;45226.03;5482571;26;19991;-69
2024/04/17 05:13:54;;;;;;;7.57;1.35;;;;;;;-146.27;77.27;45253.91;5485580;26;19994;-69
2024/04/17 05:16:19;;;;;;;9.25;1.30;;;;;;;-146.27;77.76;45253.91;5460480;26;19999;-69
2024/04/17 05:18:44;;;;;;;8.93;1.20;;;;;;;-146.27;77.80;45249.91;5455108;26;19998;-69
2024/04/17 05:21:10;;;;;;;12.68;2.00;;;;;;;-146.27;77.81;45255.88;5462974;26;20002;-70
2024/04/17 05:23:35;;;;;;;4.57;0.63;;;;;;;-146.27;77.56;45275.78;5478796;26;20013;-70
2024/04/17 05:26:00;;;;;;;10.73;1.65;;;;;;;-146.27;77.40;45289.72;5468376;26;20006;-69
2024/04/17 05:28:26;;;;;;;8.25;1.23;;;;;;;-146.27;76.69;45337.47;5463437;26;20017;-70
2024/04/17 05:30:58;;;;;;;4.85;1.20;;;;;;;-146.27;77.27;45269.81;5461953;26;20010;-68
2024/04/17 05:33:24;;;;;;;7.22;1.13;;;;;;;-146.27;76.58;45277.78;5468125;26;19995;-69
2024/04/17 05:35:49;;;;;;;6.40;1.05;;;;;;;-146.27;76.35;45345.44;5452092;26;20116;-69
2024/04/17 05:38:15;;;;;;;13.02;1.15;;;;;;;-146.27;76.56;45257.88;5477945;26;20018;-69
2024/04/17 05:40:48;;;;;;;6.82;1.10;;;;;;;-146.27;76.38;45299.66;5472924;26;20455;-70
2024/04/17 05:43:16;;;;;;;9.93;1.65;;;;;;;-146.27;75.44;45351.41;5449785;26;19999;-69
2024/04/17 05:45:44;;;;;;;3.42;1.23;;;;;;;-146.27;75.33;45321.56;5472007;26;19994;-73
2024/04/17 05:48:09;;;;;;;11.73;1.63;;;;;;;-146.27;75.33;45353.41;5482595;26;20021;-70
2024/04/17 05:50:34;;;;;;;6.57;0.95;;;;;;;-146.27;75.19;45369.31;5455582;26;20010;-69
2024/04/17 05:53:00;;;;;;;8.82;0.90;;;;;;;-146.27;75.32;45361.38;5474065;26;20363;-69
2024/04/17 05:55:26;;;;;;;6.70;1.00;;;;;;;-146.27;74.89;45385.25;5486908;26;20005;-68
2024/04/17 05:57:51;;;;;;;4.43;0.90;;;;;;;-146.27;75.33;45389.22;5479589;26;20082;-68
2024/04/17 06:00:18;;;;;;;11.63;1.50;;;;;;;-146.27;74.65;45385.25;5453558;26;19995;-69
2024/04/17 06:02:44;;;;;;;5.82;1.20;;;;;;;-146.27;74.49;45427.03;5458437;26;19999;-69
2024/04/17 06:05:10;;;;;;;6.65;1.15;;;;;;;-146.27;74.41;45425.06;5455300;26;20014;-69
2024/04/17 06:07:37;;;;;;;12.40;1.58;;;;;;;-146.27;74.21;45437.00;5463084;26;20064;-70
2024/04/17 06:10:04;;;;;;;3.58;0.70;;;;;;;-146.27;74.21;45401.16;5471454;26;20042;-71
2024/04/17 06:12:29;;;;;;;6.05;1.30;;;;;;;-146.27;73.78;45437.00;5476804;26;19991;-69
2024/04/17 06:14:54;;;;;;;8.18;1.48;;;;;;;-146.27;73.70;45440.97;5474172;26;20013;-70
2024/04/17 06:17:20;;;;;;;4.82;1.05;;;;;;;-146.27;73.76;45411.13;5466267;26;20018;-70
2024/04/17 06:19:45;;;;;;;8.75;1.15;;;;;;;-146.27;72.51;45433.00;5478589;26;19998;-69
2024/04/17 06:22:10;;;;;;;11.57;1.33;;;;;;;-146.27;71.44;45480.78;5473000;26;20303;-71
2024/04/17 06:24:36;;;;;;;9.98;1.42;;;;;;;-146.27;71.20;45488.75;5451091;26;19991;-70
2024/04/17 06:27:01;;;;;;;5.00;0.93;;;;;;;-146.27;70.57;45528.53;5460791;26;20013;-69
2024/04/17 06:29:27;;;;;;;17.55;1.65;;;;;;;-146.27;69.79;45562.38;5461818;26;20001;-69
2024/04/17 06:31:52;;;;;;;9.65;1.13;;;;;;;-146.27;69.75;45532.53;5458922;26;20047;-70
2024/04/17 06:34:17;;;;;;;5.68;1.13;;;;;;;-146.27;65.72;45703.69;5456586;26;20001;-71
2024/04/17 06:36:43;;;;;;;7.55;2.58;;;;;;;-146.27;64.24;45791.28;5456763;26;20005;-69
2024/04/17 06:39:08;;;;;;;6.03;1.00;;;;;;;-146.27;62.66;45892.78;5449002;26;22221;-73
2024/04/17 06:41:33;;;;;;;2.08;0.80;;;;;;;-146.27;60.76;45988.31;5450542;26;19995;-70
2024/04/17 06:43:59;;;;;;;3.42;0.73;;;;;;;-146.27;59.91;46002.25;5452299;26;20009;-70
2024/04/17 06:46:24;;;;;;;2.47;0.90;;;;;;;-146.27;60.34;46054.00;5454534;26;20328;-71
2024/04/17 06:48:51;;;;;;;10.15;1.20;;;;;;;-146.27;59.95;46077.91;5449851;26;20022;-69
2024/04/17 06:51:16;;;;;;;9.65;0.90;;;;;;;-146.27;60.82;46101.78;5451522;26;20013;-71
2024/04/17 06:53:41;;;;;;;9.85;1.13;;;;;;;-146.27;58.68;46185.41;5474690;26;20548;-70
2024/04/17 06:56:07;;;;;;;8.10;1.17;;;;;;;-146.27;60.00;46135.63;5452274;26;20072;-71
2024/04/17 06:58:32;;;;;;;9.13;1.27;;;;;;;-146.27;61.34;46121.69;5466290;26;20071;-72
2024/04/17 07:00:59;;;;;;;9.35;1.75;;;;;;;-146.27;63.37;46093.81;5467162;26;20013;-70
2024/04/17 07:03:24;;;;;;;5.10;1.45;;;;;;;-146.27;65.72;46016.19;5480306;26;19997;-71
2024/04/17 07:06:05;;;;;;;8.63;1.30;;;;;;;-146.27;67.46;45998.28;5476591;26;20010;-71
2024/04/17 07:08:30;;;;;;;4.10;0.75;;;;;;;-146.27;70.70;45960.47;5449605;26;19999;-71
2024/04/17 07:10:56;;;;;;;8.63;1.20;;;;;;;-146.27;72.22;45898.75;5450639;26;20017;-70
2024/04/17 07:13:21;;;;;;;4.25;1.02;;;;;;;-146.27;73.78;45807.19;5450228;26;20576;-70
2024/04/17 07:15:46;;;;;;;5.03;1.00;;;;;;;-146.27;73.81;45841.03;5450068;26;20007;-70
2024/04/17 07:18:12;;;;;;;3.42;0.88;;;;;;;-146.27;72.42;45858.94;5470342;26;20006;-70
2024/04/17 07:20:38;;;;;;;2.33;0.75;;;;;;;-146.27;69.67;45974.41;5458705;26;19995;-71
2024/04/17 07:23:03;;;;;;;3.97;0.98;;;;;;;-146.27;68.88;46006.25;5450117;26;20384;-72
2024/04/17 07:25:29;;;;;;;5.50;0.90;;;;;;;-146.27;67.60;46101.78;5449192;26;20070;-72
2024/04/17 07:27:54;;;;;;;4.90;0.98;;;;;;;-146.27;67.42;46125.69;5468313;26;19995;-70
2024/04/17 07:30:19;;;;;;;3.00;0.70;;;;;;;-146.27;66.78;46173.44;5449870;26;20003;-69
2024/04/17 07:32:45;;;;;;;6.40;0.77;;;;;;;-146.27;67.68;46159.50;5468292;26;20010;-71
2024/04/17 07:35:10;;;;;;;1.75;0.95;;;;;;;-146.27;67.88;46111.75;5456217;26;19999;-72
2024/04/17 07:37:36;;;;;;;3.47;0.95;;;;;;;-146.27;69.53;46081.88;5453174;26;20487;-70
2024/04/17 07:40:02;;;;;;;3.17;1.27;;;;;;;-146.27;73.85;45950.50;5451168;26;20014;-71
2024/04/17 07:42:27;;;;;;;4.43;0.82;;;;;;;-146.27;74.10;45924.63;5466852;26;20481;-72
2024/04/17 07:44:53;;;;;;;6.43;1.13;;;;;;;-146.27;77.04;45759.44;5482973;26;19995;-71
2024/04/17 07:47:18;;;;;;;1.92;0.80;;;;;;;-146.27;74.41;45825.09;5470844;26;20336;-70
2024/04/17 07:49:47;;;;;;;3.75;1.02;;;;;;;-146.27;73.73;45854.97;5457803;26;21514;-71
2024/04/17 07:52:12;;;;;;;3.83;0.88;;;;;;;-146.27;75.13;45767.38;5464925;26;20066;-69
2024/04/17 07:54:38;;;;;;;4.47;0.95;;;;;;;-146.27;74.24;45755.44;5476527;26;20536;-70
2024/04/17 07:57:03;;;;;;;5.28;0.60;;;;;;;-146.27;74.00;45777.34;5464540;26;20006;-72
2024/04/17 07:59:29;;;;;;;5.15;1.13;;;;;;;-146.27;72.82;45805.19;5460319;26;20014;-69
2024/04/17 08:01:54;;;;;;;3.65;0.80;;;;;;;-146.27;72.20;45854.97;5451160;26;20003;-70
2024/04/17 08:04:20;;;;;;;2.65;1.33;;;;;;;-146.27;72.02;45862.94;5472364;26;20009;-69
2024/04/17 08:06:45;;;;;;;4.80;0.90;;;;;;;-146.27;73.89;45793.25;5457813;26;20013;-70
2024/04/17 08:09:11;;;;;;;9.65;1.88;;;;;;;-146.27;73.04;45791.28;5464721;26;19991;-69
2024/04/17 08:11:37;;;;;;;6.03;1.08;;;;;;;-146.27;69.52;45936.56;5470676;26;20014;-70
2024/04/17 08:14:03;;;;;;;3.65;0.88;;;;;;;-146.27;73.40;45835.06;5482956;26;21541;-72
2024/04/17 08:16:29;;;;;;;2.78;1.02;;;;;;;-146.27;74.00;45701.69;5459194;26;20009;-71
2024/04/17 08:18:54;;;;;;;9.75;1.15;;;;;;;-146.27;69.91;45852.97;5468055;26;19990;-72
2024/04/17 08:21:21;;;;;;;4.97;1.10;;;;;;;-146.27;72.51;45777.34;5481930;26;19994;-72
2024/04/17 08:23:46;;;;;;;4.68;0.98;;;;;;;-146.27;74.39;45735.53;5462459;26;19995;-70
2024/04/17 08:26:12;;;;;;;3.22;1.15;;;;;;;-146.27;72.45;45767.38;5480091;26;19990;-70
2024/04/17 08:28:37;;;;;;;6.82;1.48;;;;;;;-146.27;70.42;45821.13;5484575;26;20043;-71
2024/04/17 08:31:02;;;;;;;4.80;1.10;;;;;;;-146.27;71.04;45825.09;5480790;26;20426;-73
2024/04/17 08:33:28;;;;;;;6.22;1.90;;;;;;;-146.27;69.18;45847.00;5450791;26;19998;-71
2024/04/17 08:35:53;;;;;;;4.35;1.15;;;;;;;-146.27;68.64;45864.91;5451702;26;19999;-71
2024/04/17 08:38:18;;;;;;;8.95;2.10;;;;;;;-146.27;67.03;45918.66;5448321;26;19995;-70
2024/04/17 08:40:47;;;;;;;5.32;0.98;;;;;;;-146.27;67.55;45924.63;5454816;26;19999;-71
2024/04/17 08:43:27;;;;;;;5.32;0.93;;;;;;;-146.27;68.23;45862.94;5461150;26;19999;-69
2024/04/17 08:45:54;;;;;;;9.68;1.05;;;;;;;-146.27;66.47;45912.69;5471717;26;19999;-72
2024/04/17 08:48:21;;;;;;;6.30;0.90;;;;;;;-146.27;65.60;45942.53;5470963;26;20331;-70
2024/04/17 08:50:47;;;;;;;3.97;0.98;;;;;;;-146.27;64.76;46022.16;5473798;26;20478;-70
2024/04/17 08:53:16;;;;;;;4.28;1.10;;;;;;;-146.27;65.15;45998.28;5447968;26;20007;-71
2024/04/17 08:55:42;;;;;;;4.80;0.80;;;;;;;-146.27;64.54;45988.31;5446943;26;20451;-70
2024/04/17 08:58:07;;;;;;;2.83;0.88;;;;;;;-146.27;62.58;45988.31;5445876;26;20005;-71
2024/04/17 09:00:37;;;;;;;7.50;0.85;;;;;;;-146.27;60.88;46034.09;5448084;26;20379;-71
2024/04/17 09:03:07;;;;;;;3.33;1.20;;;;;;;-146.27;58.27;46105.78;5448510;26;20002;-69
2024/04/17 09:05:33;;;;;;;2.85;0.77;;;;;;;-146.27;58.74;46065.97;5467337;26;19998;-70
2024/04/17 09:07:59;;;;;;;3.20;0.98;;;;;;;-146.27;57.52;46077.91;5488133;26;19998;-70
2024/04/17 09:10:25;;;;;;;6.40;1.80;;;;;;;-146.27;55.19;46201.31;5481792;26;19994;-69
2024/04/17 09:12:51;;;;;;;3.80;1.00;;;;;;;-146.27;56.77;46227.19;5450921;26;20010;-69
2024/04/17 09:15:16;;;;;;;2.42;0.80;;;;;;;-146.27;57.83;46209.28;5451151;26;20007;-71
2024/04/17 09:17:42;;;;;;;1.35;0.63;;;;;;;-146.27;58.64;46137.63;5451848;26;20013;-70
2024/04/17 09:20:08;;;;;;;4.85;0.73;;;;;;;-146.27;59.65;46265.03;5480382;26;19990;-70
2024/04/17 09:22:37;;;;;;;2.88;0.85;;;;;;;-146.27;62.21;46288.91;5467032;26;19995;-69
2024/04/17 09:25:10;;;;;;;1.48;0.73;;;;;;;-146.27;63.79;46380.47;5487503;26;20021;-70
2024/04/17 09:27:37;;;;;;;;;;;;;;;-146.27;67.60;46412.34;5459360;26;20456;-70
2024/04/17 09:30:03;;;;;;;5.22;1.00;;;;;;;-146.27;73.37;46237.16;5450830;26;19931;-71
2024/04/17 09:32:29;;;;;;;3.00;0.80;;;;;;;-146.27;74.08;46191.38;5450815;26;19995;-71
2024/04/17 09:34:55;;;;;;;5.38;0.93;;;;;;;-146.27;77.59;46054.00;5457900;26;20067;-71
2024/04/17 09:37:20;;;;;;;3.78;1.10;;;;;;;-146.27;79.56;45847.00;5450940;26;19995;-70
2024/04/17 09:39:45;;;;;;;4.72;1.48;;;;;;;-146.27;79.91;45759.44;5450659;26;20450;-71
2024/04/17 09:42:14;;;;;;;1.98;1.25;;;;;;;-146.27;81.28;45580.28;5451010;26;20002;-70
2024/04/17 09:44:42;;;;;;;6.75;1.20;;;;;;;-146.27;81.64;45488.75;5479803;26;20003;-71
2024/04/17 09:47:11;;;;;;;2.22;1.08;;;;;;;-146.27;81.57;45444.94;5461608;26;20001;-72
2024/04/17 09:49:53;;;;;;;4.25;1.50;;;;;;;-146.27;82.83;45313.59;5480366;26;20013;-71
2024/04/17 09:52:20;;;;;;;6.13;1.52;;;;;;;-146.27;83.55;45230.00;5449953;26;20022;-70
2024/04/17 09:54:46;;;;;;;2.95;1.35;;;;;;;-146.27;84.57;45090.72;5450119;26;20068;-70
2024/04/17 09:57:11;;;;;;;3.55;1.83;;;;;;;-146.27;84.38;44977.28;5450743;26;19998;-71
2024/04/17 09:59:38;;;;;;;3.35;1.88;;;;;;;-146.27;84.37;44973.28;5449680;26;20010;-71
2024/04/17 10:02:08;;;;;;;9.48;2.00;;;;;;;-146.27;84.64;44929.50;5450342;26;19995;-71
2024/04/17 10:04:35;;;;;;;7.40;2.28;;;;;;;-146.27;84.24;44935.47;5454957;26;20013;-72
2024/04/17 10:07:02;;;;;;;6.25;1.50;;;;;;;-146.27;84.17;44851.91;5474104;26;20014;-71
2024/04/17 10:09:29;;;;;;;7.60;1.90;;;;;;;-146.27;83.75;44867.81;5464469;26;20001;-71
2024/04/17 10:11:56;;;;;;;3.13;1.67;;;;;;;-146.27;83.31;44867.81;5455932;26;20330;-71
2024/04/17 10:14:23;;;;;;;6.30;1.80;;;;;;;-146.27;83.41;44847.91;5449357;26;20024;-71
2024/04/17 10:16:49;;;;;;;4.70;1.80;;;;;;;-146.27;83.08;44859.88;5450254;26;20009;-73
2024/04/17 10:19:14;;;;;;;4.13;1.88;;;;;;;-146.27;83.05;44834.00;5450156;26;20430;-71
2024/04/17 10:21:42;;;;;;;8.77;2.30;;;;;;;-146.27;82.90;44804.16;5473536;26;20003;-72
2024/04/17 10:24:09;;;;;;;5.97;2.83;;;;;;;-146.27;82.74;44784.25;5473385;26;20007;-71
2024/04/17 10:26:45;;;;;;;6.95;1.73;;;;;;;-146.27;81.05;44814.09;5454903;26;19999;-70
2024/04/17 10:29:41;;;;;;;5.22;1.48;;;;;;;-146.27;78.63;45027.03;5449841;26;19998;-71
2024/04/17 10:32:12;;;;;;;3.58;1.50;;;;;;;-146.27;79.83;44957.38;5449381;26;20121;-70
2024/04/17 10:34:44;;;;;;;2.40;1.52;;;;;;;-146.27;81.22;44935.47;5454385;26;20063;-70
2024/04/17 10:37:10;;;;;;;4.22;1.45;;;;;;;-146.27;80.13;44975.28;5450101;26;20010;-71
2024/04/17 10:39:37;;;;;;;6.78;1.90;;;;;;;-146.27;79.77;44935.47;5471308;26;19994;-69
2024/04/17 10:42:06;;;;;;;8.45;2.08;;;;;;;-146.27;78.83;45027.03;5451171;26;20006;-72
2024/04/17 10:44:43;;;;;;;4.75;1.88;;;;;;;-146.27;81.08;44929.50;5453319;26;20458;-71
2024/04/17 10:47:18;;;;;;;9.35;1.98;;;;;;;-146.27;80.28;44911.59;5473657;26;20561;-71
2024/04/17 10:50:03;;;;;;;2.28;1.25;;;;;;;-146.27;79.87;44995.19;5450001;26;20355;-71
2024/04/17 10:52:31;;;;;;;2.58;0.70;;;;;;;-146.27;79.20;45034.97;5468750;26;19995;-71
2024/04/17 10:55:01;;;;;;;3.03;1.05;;;;;;;-146.27;79.38;45122.53;5490097;25;20012;-70
2024/04/17 10:57:31;;;;;;;5.55;0.90;;;;;;;-146.27;79.77;45090.72;5449142;26;19998;-71
2024/04/17 10:59:56;;;;;;;3.00;1.13;;;;;;;-146.27;80.07;45116.56;5449637;26;20070;-70
2024/04/17 11:02:22;;;;;;;2.22;0.80;;;;;;;-146.27;79.23;45134.50;5463458;26;20442;-68
2024/04/17 11:04:49;;;;;;;1.27;0.70;;;;;;;-146.27;79.19;45174.28;5475067;26;19998;-69
2024/04/17 11:07:15;;;;;;;4.50;0.68;;;;;;;-146.27;78.76;45196.19;5463767;26;20010;-69
2024/04/17 11:09:47;;;;;;;1.70;0.47;;;;;;;-146.27;79.41;45156.38;5476162;26;19993;-70
2024/04/17 11:12:14;;;;;;;1.25;0.73;;;;;;;-146.27;78.98;45102.66;5485901;26;19998;-69